Time;durP1;ratioP1;P1;durP2;ratioP2;P2;SDS_P1;SDS_P2;PMS_P1;PMS_P2;Temp;Humidity;BMP_temperature;BMP_pressure;BME280_temperature;BME280_humidity;BME280_pressure;Samples;Min_cycle;Max_cycle;Signal;HPM_P1;HPM_P2
2022/03/13 00:01:55;;;;;;;22.45;18.77;;;8.80;94.90;;;;;;6206535;23;20035;-75
2022/03/13 00:04:20;;;;;;;22.73;18.92;;;8.80;95.30;;;;;;6211746;23;20552;-75
2022/03/13 00:06:46;;;;;;;22.77;19.23;;;8.70;95.30;;;;;;6210465;23;20021;-75
2022/03/13 00:09:14;;;;;;;22.15;18.83;;;8.70;95.30;;;;;;6210358;23;20027;-75
2022/03/13 00:11:40;;;;;;;;;;;8.70;95.00;;;;;;6211617;23;20021;-75
2022/03/13 00:14:06;;;;;;;22.08;19.10;;;8.70;95.30;;;;;;6182096;23;19920;-75
2022/03/13 00:16:33;;;;;;;24.27;18.73;;;8.70;95.20;;;;;;6184665;23;20475;-76
2022/03/13 00:18:59;;;;;;;25.20;20.15;;;8.70;95.10;;;;;;6210110;23;20105;-75
2022/03/13 00:21:25;;;;;;;23.70;19.42;;;8.70;95.30;;;;;;6183802;23;20025;-75
2022/03/13 00:23:51;;;;;;;22.27;18.95;;;8.70;95.70;;;;;;6209298;23;20091;-75
2022/03/13 00:26:17;;;;;;;23.15;20.02;;;8.60;95.70;;;;;;6186227;23;20066;-75
2022/03/13 00:28:44;;;;;;;22.67;20.15;;;8.60;96.10;;;;;;6185587;23;20385;-75
2022/03/13 00:31:10;;;;;;;26.40;19.58;;;8.60;95.90;;;;;;6186611;23;20028;-76
2022/03/13 00:33:36;;;;;;;23.85;19.33;;;8.60;96.20;;;;;;6211727;23;20020;-76
2022/03/13 00:36:01;;;;;;;23.77;19.60;;;8.60;96.50;;;;;;6209600;23;20032;-75
2022/03/13 00:38:27;;;;;;;23.92;19.88;;;8.60;96.70;;;;;;6212872;23;20082;-76
2022/03/13 00:40:55;;;;;;;22.80;18.45;;;8.60;96.60;;;;;;6185270;23;20024;-75
2022/03/13 00:43:23;;;;;;;24.30;19.92;;;8.50;96.60;;;;;;6186081;23;20347;-76
2022/03/13 00:45:49;;;;;;;28.23;19.65;;;8.60;96.90;;;;;;6185096;23;20020;-76
2022/03/13 00:48:16;;;;;;;24.10;19.58;;;8.60;96.90;;;;;;6186568;23;20075;-75
2022/03/13 00:50:42;;;;;;;21.48;19.17;;;8.60;97.00;;;;;;6212107;23;20021;-76
2022/03/13 00:53:08;;;;;;;21.17;18.77;;;8.60;97.20;;;;;;6186529;23;20020;-76
2022/03/13 00:55:34;;;;;;;22.48;19.55;;;8.60;97.20;;;;;;6211631;23;20028;-75
2022/03/13 00:58:00;;;;;;;22.92;20.23;;;8.60;97.30;;;;;;6186023;23;20028;-76
2022/03/13 01:00:26;;;;;;;24.35;19.50;;;8.50;97.20;;;;;;6185090;23;20048;-76
2022/03/13 01:02:52;;;;;;;24.63;19.52;;;8.60;97.50;;;;;;6185251;23;20167;-76
2022/03/13 01:05:24;;;;;;;23.15;19.88;;;8.60;97.50;;;;;;6214457;23;20462;-75
2022/03/13 01:07:51;;;;;;;22.88;19.30;;;8.60;98.10;;;;;;6188060;23;20024;-76
2022/03/13 01:10:17;;;;;;;23.50;19.42;;;8.50;97.90;;;;;;6212242;23;20016;-74
2022/03/13 01:12:43;;;;;;;25.33;19.27;;;8.50;97.90;;;;;;6211511;23;20314;-76
2022/03/13 01:15:10;;;;;;;22.90;19.80;;;8.50;98.00;;;;;;6210834;23;20524;-76
2022/03/13 01:17:36;;;;;;;25.80;20.65;;;8.50;97.90;;;;;;6183789;23;20064;-75
2022/03/13 01:20:03;;;;;;;22.20;19.55;;;8.50;97.90;;;;;;6212671;23;20021;-75
2022/03/13 01:22:29;;;;;;;22.42;18.58;;;8.50;97.70;;;;;;6186440;23;20054;-75
2022/03/13 01:24:55;;;;;;;21.80;19.17;;;8.40;98.00;;;;;;6183120;23;20412;-75
2022/03/13 01:27:21;;;;;;;23.65;19.40;;;8.50;98.00;;;;;;6184155;23;20020;-75
2022/03/13 01:29:48;;;;;;;24.95;19.65;;;8.40;98.10;;;;;;6184348;23;20012;-75
2022/03/13 01:32:13;;;;;;;22.83;19.45;;;8.40;98.10;;;;;;6181442;23;20017;-75
2022/03/13 01:34:42;;;;;;;22.95;20.05;;;8.40;98.20;;;;;;6212855;23;20023;-75
2022/03/13 01:37:18;;;;;;;23.63;20.45;;;8.40;98.20;;;;;;6186085;23;20353;-75
2022/03/13 01:39:44;;;;;;;22.77;20.30;;;8.40;98.60;;;;;;6184693;23;20025;-75
2022/03/13 01:42:10;;;;;;;25.45;20.75;;;8.40;98.70;;;;;;6184738;23;20024;-75
2022/03/13 01:44:36;;;;;;;25.52;21.05;;;8.40;98.70;;;;;;6212284;23;20016;-75
2022/03/13 01:47:02;;;;;;;25.95;19.75;;;8.30;99.00;;;;;;6184836;23;20090;-75
2022/03/13 01:49:28;;;;;;;23.08;20.38;;;8.30;99.00;;;;;;6212904;23;20024;-76
2022/03/13 01:51:54;;;;;;;24.07;20.50;;;8.30;99.20;;;;;;6184896;23;20378;-75
2022/03/13 01:54:20;;;;;;;23.27;20.10;;;8.30;99.10;;;;;;6211854;23;20758;-76
2022/03/13 01:56:46;;;;;;;22.58;19.88;;;8.20;99.10;;;;;;6185405;23;20019;-75
2022/03/13 01:59:14;;;;;;;23.45;20.67;;;8.30;98.90;;;;;;6185144;23;20020;-75
2022/03/13 02:01:39;;;;;;;23.20;20.05;;;8.20;98.80;;;;;;6213098;23;20063;-75
2022/03/13 02:04:06;;;;;;;25.20;20.50;;;8.20;98.70;;;;;;6212231;23;20345;-75
2022/03/13 02:06:32;;;;;;;23.05;20.55;;;8.20;98.60;;;;;;6211461;23;20088;-75
2022/03/13 02:08:58;;;;;;;23.17;20.63;;;8.20;98.60;;;;;;6185289;23;20017;-75
2022/03/13 02:11:42;;;;;;;22.55;20.00;;;8.20;98.50;;;;;;6212601;23;20013;-75
2022/03/13 02:14:10;;;;;;;23.55;20.75;;;8.10;98.60;;;;;;6211787;23;20103;-75
2022/03/13 02:16:36;;;;;;;23.33;20.27;;;8.10;98.60;;;;;;6184065;23;20547;-75
2022/03/13 02:19:05;;;;;;;24.27;19.88;;;8.10;98.50;;;;;;6209991;23;20016;-76
2022/03/13 02:21:36;;;;;;;23.23;20.42;;;8.10;98.30;;;;;;6183521;23;20034;-76
2022/03/13 02:24:07;;;;;;;24.52;20.63;;;8.10;98.50;;;;;;6212204;23;20020;-76
2022/03/13 02:26:33;;;;;;;23.15;19.65;;;8.00;98.60;;;;;;6211892;23;20020;-76
2022/03/13 02:28:59;;;;;;;28.27;21.13;;;8.00;98.60;;;;;;6183129;23;20016;-75
2022/03/13 02:31:36;;;;;;;23.38;20.38;;;8.00;98.80;;;;;;6183430;23;20013;-75
2022/03/13 02:34:03;;;;;;;25.23;21.42;;;8.00;98.90;;;;;;6210836;23;20031;-75
2022/03/13 02:36:31;;;;;;;23.63;19.73;;;7.90;99.00;;;;;;6161105;23;20039;-75
2022/03/13 02:38:59;;;;;;;23.33;20.70;;;7.90;98.90;;;;;;6210719;23;20055;-75
2022/03/13 02:41:27;;;;;;;24.63;20.40;;;7.90;99.00;;;;;;6209411;23;20013;-75
2022/03/13 02:43:54;;;;;;;22.52;19.75;;;7.90;99.10;;;;;;6185462;23;20066;-75
2022/03/13 02:46:21;;;;;;;23.77;20.33;;;7.90;98.90;;;;;;6211303;23;20099;-75
2022/03/13 02:48:48;;;;;;;23.13;20.35;;;7.80;99.00;;;;;;6182879;23;20330;-75
2022/03/13 02:51:14;;;;;;;23.50;19.00;;;7.80;99.00;;;;;;6185319;23;20456;-75
2022/03/13 02:53:40;;;;;;;24.25;20.13;;;7.80;98.70;;;;;;6185464;23;20047;-75
2022/03/13 02:56:06;;;;;;;23.63;20.15;;;7.80;98.80;;;;;;6182876;23;20016;-75
2022/03/13 02:58:34;;;;;;;23.40;20.90;;;7.80;98.60;;;;;;6214051;23;20071;-74
2022/03/13 03:01:00;;;;;;;22.42;19.88;;;7.70;98.30;;;;;;6183600;23;20135;-75
2022/03/13 03:03:26;;;;;;;24.38;20.42;;;7.70;98.40;;;;;;6211045;23;20044;-75
2022/03/13 03:05:52;;;;;;;24.55;20.58;;;7.70;98.30;;;;;;6211276;23;20078;-75
2022/03/13 03:08:19;;;;;;;23.35;19.83;;;7.60;98.50;;;;;;6185434;23;20111;-75
2022/03/13 03:10:45;;;;;;;25.33;21.40;;;7.60;98.30;;;;;;6183046;23;20028;-75
2022/03/13 03:13:13;;;;;;;23.42;19.85;;;7.60;98.30;;;;;;6184555;23;20020;-75
2022/03/13 03:15:39;;;;;;;22.33;19.13;;;7.60;98.30;;;;;;6210305;23;20017;-75
2022/03/13 03:18:06;;;;;;;25.20;20.67;;;7.60;98.40;;;;;;6209823;23;20016;-75
2022/03/13 03:20:32;;;;;;;;;;;7.50;98.20;;;;;;6183548;23;20341;-75
2022/03/13 03:22:58;;;;;;;24.55;20.65;;;7.50;98.50;;;;;;6210367;23;19942;-75
2022/03/13 03:25:26;;;;;;;25.45;20.75;;;7.50;98.50;;;;;;6183164;23;20052;-75
2022/03/13 03:27:53;;;;;;;22.17;19.50;;;7.50;98.40;;;;;;6182275;23;20095;-75
2022/03/13 03:30:24;;;;;;;25.25;20.17;;;7.40;98.30;;;;;;6211011;23;20016;-75
2022/03/13 03:32:49;;;;;;;23.23;20.67;;;7.40;98.10;;;;;;6208779;23;20017;-75
2022/03/13 03:35:20;;;;;;;23.73;20.95;;;7.40;98.40;;;;;;6182994;23;20024;-75
2022/03/13 03:37:47;;;;;;;24.70;19.98;;;7.30;98.20;;;;;;6183606;23;20021;-75
2022/03/13 03:40:13;;;;;;;24.40;20.30;;;7.30;98.60;;;;;;6211300;23;20017;-75
2022/03/13 03:42:40;;;;;;;23.13;20.42;;;7.20;98.80;;;;;;6212119;23;20418;-75
2022/03/13 03:45:06;;;;;;;23.15;20.05;;;7.20;98.70;;;;;;6209644;23;20445;-75
2022/03/13 03:47:32;;;;;;;25.90;20.70;;;7.20;98.90;;;;;;6184969;23;20017;-75
2022/03/13 03:49:58;;;;;;;24.77;20.55;;;7.20;99.00;;;;;;6183858;23;20100;-75
2022/03/13 03:52:24;;;;;;;23.55;20.48;;;7.10;99.10;;;;;;6184547;23;20511;-75
2022/03/13 03:54:50;;;;;;;24.08;20.42;;;7.10;99.00;;;;;;6183590;23;20389;-75
2022/03/13 03:57:15;;;;;;;25.35;21.05;;;7.00;98.70;;;;;;6211163;23;20008;-75
2022/03/13 03:59:41;;;;;;;24.73;20.70;;;7.00;98.70;;;;;;6209697;23;20099;-75
2022/03/13 04:02:06;;;;;;;23.65;20.73;;;7.00;99.00;;;;;;6184823;23;20020;-76
2022/03/13 04:04:32;;;;;;;24.17;20.40;;;7.00;99.10;;;;;;6212481;23;20024;-75
2022/03/13 04:06:57;;;;;;;24.60;20.50;;;6.90;98.80;;;;;;6183942;23;20017;-75
2022/03/13 04:09:23;;;;;;;22.20;19.65;;;6.90;98.50;;;;;;6212521;23;20016;-75
2022/03/13 04:11:49;;;;;;;21.80;19.48;;;6.90;98.60;;;;;;6211201;23;20063;-75
2022/03/13 04:14:17;;;;;;;23.20;19.52;;;6.90;98.50;;;;;;6210161;23;20131;-75
2022/03/13 04:16:43;;;;;;;21.65;18.50;;;6.90;98.30;;;;;;6184707;23;20020;-75
2022/03/13 04:19:12;;;;;;;21.55;18.70;;;6.90;98.00;;;;;;6212176;23;20027;-76
2022/03/13 04:21:42;;;;;;;22.60;19.02;;;6.90;97.60;;;;;;6211637;23;20009;-76
2022/03/13 04:24:09;;;;;;;23.00;19.60;;;6.90;97.60;;;;;;6211457;23;20043;-75
2022/03/13 04:26:34;;;;;;;22.17;19.15;;;6.90;96.70;;;;;;6208689;23;20044;-76
2022/03/13 04:29:03;;;;;;;23.23;19.30;;;6.90;96.70;;;;;;6211232;23;20340;-76
2022/03/13 04:31:30;;;;;;;21.52;19.15;;;6.90;96.30;;;;;;6212067;23;20344;-75
2022/03/13 04:33:55;;;;;;;23.52;19.17;;;6.90;96.40;;;;;;6209975;23;20459;-75
2022/03/13 04:36:24;;;;;;;21.67;18.42;;;6.90;96.30;;;;;;6211753;23;20020;-75
2022/03/13 04:38:50;;;;;;;24.13;19.05;;;6.80;96.40;;;;;;6211611;23;20009;-75
2022/03/13 04:41:15;;;;;;;21.77;18.98;;;6.90;96.30;;;;;;6210294;23;20531;-75
2022/03/13 04:43:42;;;;;;;22.55;18.70;;;6.80;96.20;;;;;;6185539;23;20071;-75
2022/03/13 04:46:08;;;;;;;22.90;18.60;;;6.80;96.00;;;;;;6183645;23;20032;-75
2022/03/13 04:48:34;;;;;;;20.67;18.23;;;6.90;96.40;;;;;;6184418;23;20563;-75
2022/03/13 04:51:00;;;;;;;20.92;18.60;;;6.80;96.30;;;;;;6212640;23;20056;-75
2022/03/13 04:53:26;;;;;;;22.70;18.58;;;6.80;96.40;;;;;;6185498;23;20116;-75
2022/03/13 04:55:52;;;;;;;21.33;18.45;;;6.80;96.10;;;;;;6182448;23;20020;-75
2022/03/13 04:58:19;;;;;;;24.08;19.08;;;6.70;96.30;;;;;;6211409;23;20035;-75
2022/03/13 05:00:47;;;;;;;23.07;19.13;;;6.70;96.30;;;;;;6210471;23;20009;-75
2022/03/13 05:03:13;;;;;;;22.67;19.17;;;6.70;96.30;;;;;;6209732;23;20388;-75
2022/03/13 05:05:40;;;;;;;21.02;18.08;;;6.60;95.90;;;;;;6183884;23;20326;-75
2022/03/13 05:08:11;;;;;;;21.53;19.23;;;6.60;96.30;;;;;;6210575;23;20449;-75
2022/03/13 05:10:37;;;;;;;22.27;18.55;;;6.60;96.50;;;;;;6183589;23;20303;-75
2022/03/13 05:13:05;;;;;;;23.80;19.10;;;6.60;96.40;;;;;;6212593;23;20016;-75
2022/03/13 05:15:31;;;;;;;;;;;6.50;96.40;;;;;;6213510;23;20031;-75
2022/03/13 05:17:57;;;;;;;21.13;18.10;;;6.50;96.50;;;;;;6184573;23;19916;-75
2022/03/13 05:20:22;;;;;;;22.45;18.75;;;6.40;97.00;;;;;;6186851;23;20027;-75
2022/03/13 05:22:48;;;;;;;21.23;18.67;;;6.40;96.80;;;;;;6211577;23;20507;-75
2022/03/13 05:25:16;;;;;;;21.52;18.20;;;6.40;97.00;;;;;;6186364;23;20044;-75
2022/03/13 05:27:42;;;;;;;21.90;19.40;;;6.40;97.20;;;;;;6214317;23;20368;-75
2022/03/13 05:30:08;;;;;;;24.02;19.50;;;6.30;97.50;;;;;;6185239;23;20082;-75
2022/03/13 05:32:35;;;;;;;24.08;18.60;;;6.30;97.70;;;;;;6212613;23;20016;-75
2022/03/13 05:35:02;;;;;;;22.10;19.50;;;6.20;97.50;;;;;;6186131;23;20020;-75
2022/03/13 05:37:28;;;;;;;22.23;18.80;;;6.20;97.80;;;;;;6185800;23;20460;-75
2022/03/13 05:39:54;;;;;;;21.77;19.05;;;6.10;98.10;;;;;;6185498;23;20024;-75
2022/03/13 05:42:23;;;;;;;21.92;19.10;;;6.10;98.10;;;;;;6186757;23;20021;-75
2022/03/13 05:44:49;;;;;;;22.13;19.10;;;6.10;98.40;;;;;;6184499;23;20025;-75
2022/03/13 05:47:15;;;;;;;27.40;19.75;;;6.10;98.40;;;;;;6186204;23;20027;-75
2022/03/13 05:49:40;;;;;;;21.70;18.42;;;6.10;98.10;;;;;;6213173;23;20078;-75
2022/03/13 05:52:07;;;;;;;22.27;18.60;;;6.10;98.20;;;;;;6185241;23;20817;-75
2022/03/13 05:54:33;;;;;;;21.98;19.00;;;6.10;97.90;;;;;;6212274;23;20372;-75
2022/03/13 05:57:00;;;;;;;21.13;18.88;;;6.10;97.70;;;;;;6211384;23;20020;-75
2022/03/13 05:59:26;;;;;;;20.60;18.23;;;6.10;98.00;;;;;;6211989;23;20012;-75
2022/03/13 06:01:51;;;;;;;21.50;17.88;;;6.10;97.90;;;;;;6185079;23;20114;-75
2022/03/13 06:04:17;;;;;;;22.13;18.98;;;6.10;97.60;;;;;;6185484;23;20029;-75
2022/03/13 06:06:43;;;;;;;22.02;18.20;;;6.20;97.70;;;;;;6212252;23;20040;-75
2022/03/13 06:09:09;;;;;;;23.15;18.67;;;6.20;97.90;;;;;;6213018;23;20040;-75
2022/03/13 06:11:34;;;;;;;24.13;19.00;;;6.20;97.60;;;;;;6186901;23;20446;-75
2022/03/13 06:14:00;;;;;;;22.35;17.35;;;6.20;97.50;;;;;;6183611;23;20020;-75
2022/03/13 06:16:25;;;;;;;21.98;18.05;;;6.30;97.20;;;;;;6213061;23;20472;-75
2022/03/13 06:18:51;;;;;;;23.15;18.00;;;6.30;96.70;;;;;;6210581;23;20364;-76
2022/03/13 06:21:17;;;;;;;21.05;17.65;;;6.30;96.70;;;;;;6212730;23;20087;-75
2022/03/13 06:23:42;;;;;;;21.05;17.27;;;6.30;96.20;;;;;;6212048;23;20024;-76
2022/03/13 06:26:09;;;;;;;20.83;18.55;;;6.30;95.80;;;;;;6184715;23;20032;-75
2022/03/13 06:28:34;;;;;;;19.75;17.52;;;6.40;95.10;;;;;;6185866;23;20019;-76
2022/03/13 06:31:01;;;;;;;20.10;17.42;;;6.40;95.00;;;;;;6211404;23;20024;-75
2022/03/13 06:33:28;;;;;;;20.70;18.13;;;6.50;94.70;;;;;;6212029;23;20073;-76
2022/03/13 06:35:54;;;;;;;22.15;19.08;;;6.50;94.10;;;;;;6211672;23;20024;-74
2022/03/13 06:38:20;;;;;;;21.77;18.30;;;6.60;93.90;;;;;;6213625;23;20008;-75
2022/03/13 06:40:45;;;;;;;26.70;22.55;;;6.60;92.80;;;;;;6184252;23;20468;-73
2022/03/13 06:43:11;;;;;;;22.40;19.55;;;6.70;92.30;;;;;;6215106;23;20016;-75
2022/03/13 06:45:37;;;;;;;23.05;17.65;;;6.70;91.50;;;;;;6187232;23;20035;-75
2022/03/13 06:48:02;;;;;;;21.92;17.38;;;6.80;90.80;;;;;;6183805;23;20032;-75
2022/03/13 06:50:28;;;;;;;20.25;17.77;;;6.80;89.80;;;;;;6185974;23;20027;-75
2022/03/13 06:52:55;;;;;;;21.55;18.45;;;6.80;89.10;;;;;;6184053;23;20047;-75
2022/03/13 06:55:22;;;;;;;27.27;22.20;;;6.90;88.80;;;;;;6211792;23;20345;-75
2022/03/13 06:57:49;;;;;;;25.37;22.33;;;6.90;87.20;;;;;;6212880;23;20016;-76
2022/03/13 07:00:16;;;;;;;21.30;18.13;;;6.90;87.50;;;;;;6186067;23;20027;-75
2022/03/13 07:02:41;;;;;;;24.83;18.63;;;6.90;86.50;;;;;;6212397;23;20019;-76
2022/03/13 07:05:08;;;;;;;23.10;19.45;;;7.00;85.80;;;;;;6184893;23;20028;-75
2022/03/13 07:07:33;;;;;;;23.35;18.92;;;7.00;84.40;;;;;;6213164;23;20035;-76
2022/03/13 07:09:59;;;;;;;23.02;19.27;;;7.10;82.90;;;;;;6210999;23;20618;-76
2022/03/13 07:12:25;;;;;;;21.35;18.20;;;7.10;81.80;;;;;;6185283;23;20461;-76
2022/03/13 07:14:55;;;;;;;25.17;19.05;;;7.20;82.20;;;;;;6210760;23;20020;-76
2022/03/13 07:17:21;;;;;;;25.13;19.95;;;7.20;80.80;;;;;;6210031;23;20020;-76
2022/03/13 07:19:47;;;;;;;22.58;18.70;;;7.20;79.90;;;;;;6184199;23;20031;-75
2022/03/13 07:22:14;;;;;;;23.52;17.50;;;7.20;79.50;;;;;;6212847;23;20008;-75
2022/03/13 07:24:41;;;;;;;20.23;16.83;;;7.20;80.10;;;;;;6181263;23;20021;-76
2022/03/13 07:27:07;;;;;;;18.90;16.83;;;7.30;80.40;;;;;;6211807;23;20198;-75
2022/03/13 07:29:33;;;;;;;19.27;16.67;;;7.40;79.70;;;;;;6184162;23;20016;-75
2022/03/13 07:31:58;;;;;;;19.17;16.48;;;7.40;79.60;;;;;;6183424;23;20019;-75
2022/03/13 07:34:25;;;;;;;21.20;17.08;;;7.50;79.20;;;;;;6185732;23;20044;-75
2022/03/13 07:36:51;;;;;;;19.67;15.93;;;7.50;78.70;;;;;;6183309;23;20023;-75
2022/03/13 07:39:18;;;;;;;19.67;17.60;;;7.60;76.80;;;;;;6213119;23;20052;-76
2022/03/13 07:41:44;;;;;;;21.58;17.48;;;7.60;76.90;;;;;;6184572;23;20024;-76
2022/03/13 07:44:10;;;;;;;20.90;17.67;;;7.60;76.50;;;;;;6210971;23;20017;-75
2022/03/13 07:46:36;;;;;;;21.42;16.88;;;7.60;75.80;;;;;;6185504;23;20323;-75
2022/03/13 07:49:02;;;;;;;17.50;15.23;;;7.60;76.50;;;;;;6184175;23;20017;-75
2022/03/13 07:51:28;;;;;;;19.38;15.55;;;7.70;77.00;;;;;;6184434;23;20016;-75
2022/03/13 07:53:53;;;;;;;18.50;15.38;;;7.70;76.30;;;;;;6211513;23;20047;-75
2022/03/13 07:56:19;;;;;;;18.52;16.17;;;7.80;76.20;;;;;;6211136;23;20021;-76
2022/03/13 07:58:45;;;;;;;19.23;16.63;;;7.80;76.20;;;;;;6182660;23;20021;-75
2022/03/13 08:01:11;;;;;;;20.33;16.50;;;8.00;76.00;;;;;;6184259;23;20017;-75
2022/03/13 08:03:38;;;;;;;18.25;15.68;;;8.10;75.10;;;;;;6182665;23;20016;-77
2022/03/13 08:06:04;;;;;;;19.98;16.55;;;8.20;74.60;;;;;;6181646;23;20020;-76
2022/03/13 08:08:30;;;;;;;18.60;16.30;;;8.30;75.00;;;;;;6184416;23;20082;-79
2022/03/13 08:10:57;;;;;;;18.88;15.43;;;8.40;74.20;;;;;;6209854;23;20087;-85
2022/03/13 08:13:23;;;;;;;20.23;14.40;;;8.40;72.60;;;;;;6211628;23;20023;-78
2022/03/13 08:15:49;;;;;;;18.10;15.27;;;8.50;71.20;;;;;;6184702;23;20021;-79
2022/03/13 08:18:15;;;;;;;16.95;14.55;;;8.50;70.60;;;;;;6184895;23;20019;-82
2022/03/13 08:20:40;;;;;;;18.40;14.98;;;8.70;70.50;;;;;;6183938;23;20051;-88
2022/03/13 08:23:06;;;;;;;21.98;15.27;;;8.80;68.70;;;;;;6184768;23;20543;-84
2022/03/13 08:25:32;;;;;;;19.27;15.20;;;8.80;68.00;;;;;;6212698;23;20012;-83
2022/03/13 08:27:57;;;;;;;18.50;15.00;;;8.90;67.50;;;;;;6211627;23;20341;-85
2022/03/13 08:30:23;;;;;;;18.92;15.10;;;9.00;67.60;;;;;;6185863;23;20325;-86
2022/03/13 08:32:49;;;;;;;18.05;15.00;;;9.10;67.80;;;;;;6184188;23;20023;-83
2022/03/13 08:35:15;;;;;;;18.33;14.55;;;9.20;66.70;;;;;;6212755;23;20012;-82
2022/03/13 08:37:40;;;;;;;18.27;14.95;;;9.20;66.00;;;;;;6213166;23;20333;-85
2022/03/13 08:40:08;;;;;;;17.10;14.73;;;9.30;66.70;;;;;;6182140;23;20020;-86
2022/03/13 08:42:33;;;;;;;17.27;14.43;;;9.40;66.00;;;;;;6185537;23;20047;-83
2022/03/13 08:45:00;;;;;;;17.52;14.93;;;9.40;65.00;;;;;;6184878;23;20067;-85
2022/03/13 08:47:27;;;;;;;18.85;15.27;;;9.50;63.90;;;;;;6184737;23;20048;-86
2022/03/13 08:49:53;;;;;;;18.23;14.93;;;9.50;63.30;;;;;;6213868;23;20016;-82
2022/03/13 08:52:19;;;;;;;16.52;14.70;;;9.60;63.50;;;;;;6213977;23;20243;-84
2022/03/13 08:54:45;;;;;;;19.10;14.50;;;9.60;63.90;;;;;;6211924;23;20047;-80
2022/03/13 08:57:11;;;;;;;20.00;14.80;;;9.60;64.20;;;;;;6212073;23;20021;-76
2022/03/13 08:59:37;;;;;;;18.30;15.05;;;9.70;63.70;;;;;;6212028;23;20020;-77
2022/03/13 09:02:05;;;;;;;17.67;14.75;;;9.70;63.40;;;;;;6211469;23;20016;-77
2022/03/13 09:04:31;;;;;;;19.80;14.98;;;9.80;63.60;;;;;;6212447;23;20024;-77
2022/03/13 09:06:57;;;;;;;16.43;14.63;;;9.80;63.30;;;;;;6186676;23;20405;-77
2022/03/13 09:09:23;;;;;;;18.42;15.13;;;9.90;63.20;;;;;;6213340;23;20019;-77
2022/03/13 09:11:51;;;;;;;19.27;15.60;;;10.00;63.30;;;;;;6212335;23;20047;-77
2022/03/13 09:14:17;;;;;;;21.17;14.82;;;10.00;62.90;;;;;;6186173;23;20020;-77
2022/03/13 09:16:44;;;;;;;17.30;15.20;;;10.10;62.10;;;;;;6185148;23;20076;-78
2022/03/13 09:19:10;;;;;;;19.77;16.45;;;10.20;61.80;;;;;;6213657;23;20067;-77
2022/03/13 09:21:39;;;;;;;16.85;14.65;;;10.30;61.90;;;;;;6213423;23;20337;-77
2022/03/13 09:24:09;;;;;;;15.95;13.70;;;10.40;61.60;;;;;;6211437;23;20059;-77
2022/03/13 09:26:39;;;;;;;18.88;14.98;;;10.50;60.30;;;;;;6187211;23;20393;-77
2022/03/13 09:29:06;;;;;;;19.45;14.50;;;10.50;60.00;;;;;;6184902;23;20012;-77
2022/03/13 09:31:32;;;;;;;17.30;14.50;;;10.60;60.20;;;;;;6213795;23;20024;-77
2022/03/13 09:33:57;;;;;;;19.38;14.95;;;10.70;60.00;;;;;;6186005;23;20027;-77
2022/03/13 09:36:24;;;;;;;17.40;15.23;;;10.70;59.70;;;;;;6212527;23;20031;-77
2022/03/13 09:38:51;;;;;;;16.92;13.88;;;10.80;59.60;;;;;;6185622;23;20032;-77
2022/03/13 09:41:17;;;;;;;18.10;14.40;;;11.00;59.10;;;;;;6213892;23;20349;-77
2022/03/13 09:43:43;;;;;;;19.40;14.75;;;11.00;59.50;;;;;;6183485;23;20013;-77
2022/03/13 09:46:08;;;;;;;19.58;14.48;;;11.10;58.30;;;;;;6185501;23;20027;-77
2022/03/13 09:48:37;;;;;;;16.42;14.52;;;11.10;57.90;;;;;;6186224;23;20020;-77
2022/03/13 09:51:04;;;;;;;18.23;15.27;;;11.20;57.10;;;;;;6184831;23;20020;-77
2022/03/13 09:53:30;;;;;;;19.63;14.02;;;11.30;56.70;;;;;;6185693;23;20016;-77
2022/03/13 09:55:57;;;;;;;20.23;13.70;;;11.40;56.40;;;;;;6185734;23;20139;-77
2022/03/13 09:58:23;;;;;;;17.42;14.10;;;11.50;56.40;;;;;;6184733;23;20012;-77
2022/03/13 10:00:48;;;;;;;18.88;14.27;;;11.60;56.20;;;;;;6185381;23;20133;-77
2022/03/13 10:03:14;;;;;;;20.83;14.27;;;11.60;56.00;;;;;;6185780;23;20096;-77
2022/03/13 10:05:47;;;;;;;17.27;13.73;;;11.80;56.00;;;;;;6184491;23;20017;-77
2022/03/13 10:08:14;;;;;;;20.40;14.55;;;11.80;56.10;;;;;;6185995;23;20075;-77
2022/03/13 10:10:43;;;;;;;18.52;14.25;;;11.80;55.50;;;;;;6186714;23;20020;-78
2022/03/13 10:13:09;;;;;;;17.20;13.63;;;11.90;54.70;;;;;;6212879;23;20016;-84
2022/03/13 10:15:46;;;;;;;20.33;15.00;;;11.90;54.00;;;;;;6185481;23;20680;-80
2022/03/13 10:18:20;;;;;;;16.52;14.15;;;12.00;53.30;;;;;;6212331;23;20371;-81
2022/03/13 10:20:47;;;;;;;18.27;13.85;;;12.10;53.00;;;;;;6212021;23;20376;-81
2022/03/13 10:23:19;;;;;;;17.40;14.18;;;12.20;52.70;;;;;;6185735;23;20017;-78
2022/03/13 10:25:50;;;;;;;17.55;14.32;;;12.20;52.70;;;;;;6210331;23;20095;-78
2022/03/13 10:28:30;;;;;;;18.23;13.77;;;12.30;52.70;;;;;;6214754;23;20341;-80
2022/03/13 10:30:58;;;;;;;17.02;13.50;;;12.30;51.90;;;;;;6185683;23;20016;-79
2022/03/13 10:33:26;;;;;;;16.27;13.57;;;12.40;52.00;;;;;;6212711;23;20387;-80
2022/03/13 10:36:15;;;;;;;18.38;14.75;;;12.50;52.00;;;;;;6184599;23;20023;-81
2022/03/13 10:38:43;;;;;;;17.77;14.10;;;12.60;51.80;;;;;;6186988;23;20013;-78
2022/03/13 10:41:09;;;;;;;17.65;13.40;;;12.70;52.00;;;;;;6212579;23;20020;-81
2022/03/13 10:43:37;;;;;;;18.02;14.13;;;12.80;51.40;;;;;;6186994;23;20437;-78
2022/03/13 10:46:03;;;;;;;19.65;14.27;;;12.90;51.50;;;;;;6210691;23;20427;-77
2022/03/13 10:48:36;;;;;;;23.63;18.10;;;13.00;51.70;;;;;;6211482;23;20052;-77
2022/03/13 10:51:07;;;;;;;23.95;18.17;;;13.10;51.30;;;;;;6211744;23;20345;-74
2022/03/13 10:53:39;;;;;;;28.08;19.67;;;13.20;50.60;;;;;;6184802;23;20027;-72
2022/03/13 10:56:12;;;;;;;21.02;16.20;;;13.20;50.60;;;;;;6185724;23;20445;-74
2022/03/13 10:58:48;;;;;;;19.70;14.73;;;13.20;50.70;;;;;;6186215;23;20030;-74
2022/03/13 11:01:19;;;;;;;19.15;14.15;;;13.20;50.70;;;;;;6212542;23;20017;-75
2022/03/13 11:03:53;;;;;;;19.90;14.30;;;13.20;50.90;;;;;;6185757;23;20051;-77
2022/03/13 11:06:20;;;;;;;17.63;14.55;;;13.20;50.70;;;;;;6213406;23;20021;-78
2022/03/13 11:08:47;;;;;;;;;;;13.20;50.50;;;;;;6211826;23;20658;-75
2022/03/13 11:11:16;;;;;;;19.23;14.57;;;13.10;51.00;;;;;;6211146;23;19916;-74
2022/03/13 11:13:42;;;;;;;22.33;14.52;;;13.20;51.20;;;;;;6212109;23;20092;-81
2022/03/13 11:16:11;;;;;;;18.13;14.77;;;13.10;51.10;;;;;;6211730;23;20016;-81
2022/03/13 11:18:38;;;;;;;21.65;14.88;;;13.10;50.80;;;;;;6212851;23;20023;-81
2022/03/13 11:21:06;;;;;;;17.50;14.13;;;13.00;50.70;;;;;;6212075;23;20012;-75
2022/03/13 11:23:36;;;;;;;19.70;15.15;;;13.10;50.50;;;;;;6209439;23;20017;-79
2022/03/13 11:26:04;;;;;;;18.40;14.02;;;13.10;49.90;;;;;;6184258;23;20337;-78
2022/03/13 11:28:30;;;;;;;;;;;13.00;49.90;;;;;;6186026;23;20062;-77
2022/03/13 11:30:57;;;;;;;19.67;15.07;;;13.10;50.60;;;;;;6211180;23;19916;-77
2022/03/13 11:33:44;;;;;;;18.00;14.50;;;13.10;50.60;;;;;;6185048;23;20055;-78
2022/03/13 11:36:29;;;;;;;16.50;14.30;;;13.20;50.20;;;;;;6210844;23;20024;-78
2022/03/13 11:39:01;;;;;;;21.27;15.07;;;13.30;50.20;;;;;;6184012;23;20384;-79
2022/03/13 11:41:38;;;;;;;17.75;14.23;;;13.30;50.40;;;;;;6185452;23;20020;-77
2022/03/13 11:44:22;;;;;;;17.75;14.45;;;13.40;50.10;;;;;;6184224;23;20078;-76
2022/03/13 11:46:51;;;;;;;20.02;14.60;;;13.40;49.60;;;;;;6183829;23;20077;-79
2022/03/13 11:49:32;;;;;;;21.27;14.35;;;13.40;49.80;;;;;;6211440;23;20040;-79
2022/03/13 11:52:10;;;;;;;17.52;14.95;;;13.50;49.40;;;;;;6210680;23;20017;-79
2022/03/13 11:54:45;;;;;;;16.88;14.38;;;13.40;49.70;;;;;;6185925;23;20025;-76
2022/03/13 11:57:19;;;;;;;18.35;14.70;;;13.50;49.30;;;;;;6211735;23;20091;-75
2022/03/13 11:59:49;;;;;;;17.13;14.10;;;13.50;49.10;;;;;;6209849;23;20055;-74
2022/03/13 12:02:43;;;;;;;16.63;13.85;;;13.50;49.30;;;;;;6184161;23;20017;-76
2022/03/13 12:05:30;;;;;;;18.27;13.65;;;13.60;49.60;;;;;;6184695;23;20048;-75
2022/03/13 12:07:56;;;;;;;21.90;14.77;;;13.70;49.50;;;;;;6184439;23;20020;-75
2022/03/13 12:10:42;;;;;;;17.23;13.93;;;13.80;50.00;;;;;;6184816;23;20021;-75
2022/03/13 12:13:09;;;;;;;18.05;15.15;;;13.90;49.20;;;;;;6184574;23;20032;-76
2022/03/13 12:15:35;;;;;;;19.75;14.38;;;14.00;49.60;;;;;;6184445;23;20341;-77
2022/03/13 12:18:25;;;;;;;18.13;14.18;;;14.20;49.30;;;;;;6182919;23;20020;-78
2022/03/13 12:20:51;;;;;;;18.42;14.68;;;14.30;48.50;;;;;;6185732;23;20025;-80
2022/03/13 12:23:26;;;;;;;17.90;15.47;;;14.40;48.80;;;;;;6215137;23;20158;-76
2022/03/13 12:25:53;;;;;;;17.40;14.60;;;14.50;48.50;;;;;;6185741;23;20012;-78
2022/03/13 12:28:30;;;;;;;18.67;15.52;;;14.50;48.20;;;;;;6212547;23;20013;-78
2022/03/13 12:31:01;;;;;;;20.42;14.70;;;14.60;47.40;;;;;;6186501;23;20344;-76
2022/03/13 12:33:31;;;;;;;17.27;13.80;;;14.60;47.70;;;;;;6212138;23;20516;-77
2022/03/13 12:35:59;;;;;;;15.55;13.40;;;14.60;47.80;;;;;;6186797;23;20386;-77
2022/03/13 12:38:32;;;;;;;18.15;13.70;;;14.80;47.30;;;;;;6211584;23;20017;-79